Time;durP1;ratioP1;P1;durP2;ratioP2;P2;SDS_P1;SDS_P2;PMS_P1;PMS_P2;Temp;Humidity;BMP_temperature;BMP_pressure;BME280_temperature;BME280_humidity;BME280_pressure;Samples;Min_cycle;Max_cycle;Signal;HPM_P1;HPM_P2
2021/03/14 00:00:53;;;;;;;6.45;1.67;;;5.00;99.90;;;;;;5073253;28;20510;-55
2021/03/14 00:03:20;;;;;;;7.70;1.40;;;5.10;99.90;;;;;;5076002;28;20107;-51
2021/03/14 00:05:48;;;;;;;10.73;1.90;;;5.00;99.90;;;;;;5077552;28;20023;-56
2021/03/14 00:08:14;;;;;;;6.68;1.75;;;5.00;99.90;;;;;;5074928;28;20028;-53
2021/03/14 00:10:44;;;;;;;6.72;1.50;;;5.00;99.90;;;;;;5072501;28;20111;-53
2021/03/14 00:13:12;;;;;;;5.03;1.13;;;5.00;99.90;;;;;;5078021;28;20218;-52
2021/03/14 00:15:38;;;;;;;7.85;2.13;;;5.00;99.90;;;;;;5074556;28;20444;-51
2021/03/14 00:18:04;;;;;;;12.52;1.95;;;5.00;99.90;;;;;;5081847;28;20024;-51
2021/03/14 00:20:29;;;;;;;6.75;1.55;;;5.00;99.90;;;;;;5070222;28;20389;-51
2021/03/14 00:22:55;;;;;;;16.52;2.42;;;5.00;99.90;;;;;;5080382;28;20020;-55
2021/03/14 00:25:21;;;;;;;10.50;2.03;;;5.00;99.90;;;;;;5092678;22;20071;-57
2021/03/14 00:27:46;;;;;;;5.68;1.80;;;5.10;99.90;;;;;;5084715;28;20035;-54
2021/03/14 00:30:15;;;;;;;21.75;2.55;;;5.20;99.90;;;;;;5088960;28;20420;-53
2021/03/14 00:32:41;;;;;;;10.40;2.00;;;5.20;99.90;;;;;;5093270;28;20030;-55
2021/03/14 00:35:10;;;;;;;11.48;2.40;;;5.20;99.90;;;;;;5092804;28;20033;-58
2021/03/14 00:37:35;;;;;;;15.27;2.65;;;5.20;99.90;;;;;;5092639;28;20028;-58
2021/03/14 00:40:01;;;;;;;15.20;2.80;;;5.30;99.90;;;;;;5092132;28;21594;-56
2021/03/14 00:42:26;;;;;;;9.23;2.55;;;5.30;99.90;;;;;;5092251;28;20032;-55
2021/03/14 00:44:52;;;;;;;14.88;2.47;;;5.30;99.90;;;;;;5092939;28;20884;-55
2021/03/14 00:47:17;;;;;;;15.65;3.45;;;5.30;99.90;;;;;;5092620;28;20028;-55
2021/03/14 00:49:43;;;;;;;11.20;2.30;;;5.30;99.90;;;;;;5092016;28;20043;-55
2021/03/14 00:52:08;;;;;;;7.82;2.55;;;5.30;99.90;;;;;;5092524;28;20121;-59
2021/03/14 00:54:34;;;;;;;8.30;2.42;;;5.30;99.90;;;;;;5092013;28;20028;-57
2021/03/14 00:57:00;;;;;;;16.42;2.90;;;5.40;99.90;;;;;;5092644;28;20028;-57
2021/03/14 00:59:26;;;;;;;12.95;3.40;;;5.40;99.90;;;;;;5092439;28;20192;-56
2021/03/14 01:01:51;;;;;;;15.32;2.80;;;5.40;99.90;;;;;;5089381;28;20040;-59
2021/03/14 01:04:17;;;;;;;8.43;2.17;;;5.40;99.90;;;;;;5092083;28;20875;-56
2021/03/14 01:06:42;;;;;;;7.57;3.17;;;5.40;99.90;;;;;;5092234;28;20112;-56
2021/03/14 01:09:08;;;;;;;11.75;2.40;;;5.50;99.90;;;;;;5092572;28;20268;-57
2021/03/14 01:11:35;;;;;;;7.35;2.38;;;5.50;99.90;;;;;;5092006;28;20054;-55
2021/03/14 01:14:01;;;;;;;17.55;2.60;;;5.50;99.90;;;;;;5092282;28;20103;-55
2021/03/14 01:16:26;;;;;;;9.52;2.40;;;5.50;99.90;;;;;;5092227;28;20047;-55
2021/03/14 01:18:52;;;;;;;6.97;2.47;;;5.50;99.90;;;;;;5091569;28;20102;-55
2021/03/14 01:21:18;;;;;;;9.07;2.13;;;5.60;99.90;;;;;;5091515;28;20563;-55
2021/03/14 01:23:43;;;;;;;11.10;2.03;;;5.60;99.90;;;;;;5092581;28;20374;-56
2021/03/14 01:26:09;;;;;;;16.50;2.17;;;5.70;99.90;;;;;;5091998;28;20032;-58
2021/03/14 01:28:35;;;;;;;15.93;2.03;;;5.60;99.90;;;;;;5092003;28;20070;-58
2021/03/14 01:31:01;;;;;;;10.38;2.33;;;5.60;99.90;;;;;;5091421;28;20055;-58
2021/03/14 01:33:27;;;;;;;8.95;2.25;;;5.60;99.90;;;;;;5092241;28;20059;-57
2021/03/14 01:35:52;;;;;;;11.38;2.42;;;5.60;99.90;;;;;;5092231;28;20071;-57
2021/03/14 01:38:18;;;;;;;9.68;2.08;;;5.60;99.90;;;;;;5092070;28;20024;-55
2021/03/14 01:40:44;;;;;;;14.65;2.25;;;5.70;99.90;;;;;;5091441;28;20024;-58
2021/03/14 01:43:09;;;;;;;12.18;1.98;;;5.60;99.90;;;;;;5091072;28;20030;-57
2021/03/14 01:45:35;;;;;;;10.32;2.70;;;5.70;99.90;;;;;;5088874;28;20073;-55
2021/03/14 01:48:03;;;;;;;12.05;2.22;;;5.70;99.90;;;;;;5091648;28;20020;-56
2021/03/14 01:50:30;;;;;;;6.88;1.77;;;5.70;99.90;;;;;;5091104;28;20060;-56
2021/03/14 01:52:56;;;;;;;15.00;3.63;;;5.70;99.90;;;;;;5091698;28;20082;-55
2021/03/14 01:55:23;;;;;;;12.43;2.40;;;5.70;99.90;;;;;;5091979;28;20024;-56
2021/03/14 01:57:50;;;;;;;14.20;2.67;;;5.70;99.90;;;;;;5090878;28;20020;-57
2021/03/14 02:00:19;;;;;;;10.18;2.50;;;5.70;99.90;;;;;;5091309;28;20053;-56
2021/03/14 02:02:46;;;;;;;12.57;2.47;;;5.70;99.90;;;;;;5091364;28;20115;-56
2021/03/14 02:05:13;;;;;;;12.73;2.30;;;5.70;99.90;;;;;;5091730;28;20027;-56
2021/03/14 02:07:41;;;;;;;6.78;1.63;;;5.80;99.90;;;;;;5088675;28;20029;-55
2021/03/14 02:10:08;;;;;;;7.75;1.30;;;5.70;99.90;;;;;;5091438;28;20024;-57
2021/03/14 02:12:39;;;;;;;9.90;1.60;;;5.70;99.90;;;;;;5091472;28;20532;-55
2021/03/14 02:15:06;;;;;;;6.03;1.38;;;5.70;99.90;;;;;;5091403;28;20032;-58
2021/03/14 02:17:35;;;;;;;13.23;3.78;;;5.70;99.90;;;;;;5091414;28;20024;-56
2021/03/14 02:20:14;;;;;;;5.93;2.65;;;5.80;99.90;;;;;;5090998;28;20492;-56
2021/03/14 02:22:46;;;;;;;14.50;2.60;;;5.70;99.90;;;;;;5089029;28;20405;-57
2021/03/14 02:25:21;;;;;;;15.88;3.50;;;5.70;99.90;;;;;;5089903;28;20123;-57
2021/03/14 02:27:48;;;;;;;18.20;2.50;;;5.70;99.90;;;;;;5091714;28;20024;-57
2021/03/14 02:30:14;;;;;;;13.23;2.40;;;5.60;99.90;;;;;;5091563;28;20047;-55
2021/03/14 02:32:41;;;;;;;11.10;2.25;;;5.60;99.90;;;;;;5089418;28;20032;-56
2021/03/14 02:35:09;;;;;;;10.40;2.75;;;5.50;99.90;;;;;;5091317;28;20043;-55
2021/03/14 02:37:36;;;;;;;8.27;2.15;;;5.50;99.90;;;;;;5090309;28;20038;-54
2021/03/14 02:40:04;;;;;;;11.30;3.05;;;5.60;99.90;;;;;;5089903;28;20032;-55
2021/03/14 02:42:30;;;;;;;11.57;1.88;;;5.50;99.90;;;;;;5090515;28;20390;-57
2021/03/14 02:44:57;;;;;;;9.13;2.25;;;5.60;99.90;;;;;;5089956;28;20074;-57
2021/03/14 02:47:25;;;;;;;5.20;1.60;;;5.50;99.90;;;;;;5089787;28;20036;-58
2021/03/14 02:49:52;;;;;;;11.38;2.03;;;5.50;99.90;;;;;;5090488;28;20059;-54
2021/03/14 02:52:20;;;;;;;11.30;3.15;;;5.50;99.90;;;;;;5089917;28;20039;-55
2021/03/14 02:54:48;;;;;;;7.65;1.90;;;5.50;99.90;;;;;;5090470;28;20075;-57
2021/03/14 02:57:14;;;;;;;10.00;1.92;;;5.50;99.90;;;;;;5090414;28;20028;-57
2021/03/14 02:59:41;;;;;;;8.57;2.40;;;5.50;99.90;;;;;;5089590;28;20019;-57
2021/03/14 03:02:08;;;;;;;11.07;2.83;;;5.50;99.90;;;;;;5089905;28;20111;-58
2021/03/14 03:04:34;;;;;;;20.38;2.70;;;5.50;99.90;;;;;;5090151;28;20090;-54
2021/03/14 03:07:01;;;;;;;13.45;3.70;;;5.50;99.90;;;;;;5090948;28;20020;-55
2021/03/14 03:09:27;;;;;;;10.65;3.42;;;5.50;99.90;;;;;;5088873;28;20109;-55
2021/03/14 03:11:55;;;;;;;11.48;3.38;;;5.50;99.90;;;;;;5089497;28;20506;-57
2021/03/14 03:14:26;;;;;;;8.98;2.90;;;5.40;99.90;;;;;;5090113;28;20031;-54
2021/03/14 03:16:52;;;;;;;10.10;3.78;;;5.40;99.90;;;;;;5089165;28;20036;-56
2021/03/14 03:19:20;;;;;;;9.25;3.58;;;5.40;99.90;;;;;;5070985;28;20020;-55
2021/03/14 03:21:47;;;;;;;14.27;3.60;;;5.30;99.90;;;;;;5085207;28;20562;-55
2021/03/14 03:24:14;;;;;;;14.05;4.03;;;5.30;99.90;;;;;;5089740;28;20040;-54
2021/03/14 03:26:41;;;;;;;11.13;4.13;;;5.30;99.90;;;;;;5089659;28;20036;-55
2021/03/14 03:29:08;;;;;;;12.70;4.18;;;5.30;99.90;;;;;;5089676;28;20070;-54
2021/03/14 03:31:34;;;;;;;11.80;4.03;;;5.30;99.90;;;;;;5087054;28;20056;-56
2021/03/14 03:34:00;;;;;;;15.68;4.72;;;5.30;99.90;;;;;;5089909;28;20086;-56
2021/03/14 03:36:26;;;;;;;10.90;4.50;;;5.30;99.90;;;;;;5089564;28;20238;-55
2021/03/14 03:38:52;;;;;;;16.17;5.07;;;5.30;99.90;;;;;;5089687;28;20016;-56
2021/03/14 03:41:17;;;;;;;11.35;4.50;;;5.30;99.90;;;;;;5089723;28;20346;-56
2021/03/14 03:43:44;;;;;;;14.60;5.55;;;5.30;99.90;;;;;;5089945;28;20036;-57
2021/03/14 03:46:12;;;;;;;10.10;4.72;;;5.30;99.90;;;;;;5089583;28;20484;-55
2021/03/14 03:48:45;;;;;;;13.02;4.63;;;5.30;99.90;;;;;;5089503;28;20424;-55
2021/03/14 03:51:13;;;;;;;15.63;5.47;;;5.30;99.90;;;;;;5088539;28;20081;-54
2021/03/14 03:53:40;;;;;;;12.90;5.68;;;5.30;99.90;;;;;;5088942;28;20032;-57
2021/03/14 03:56:09;;;;;;;10.13;5.25;;;5.30;99.90;;;;;;5086723;28;20016;-56
2021/03/14 03:58:35;;;;;;;9.10;4.43;;;5.30;99.90;;;;;;5089590;28;20477;-54
2021/03/14 04:01:02;;;;;;;18.67;5.63;;;5.30;99.90;;;;;;5089240;28;20123;-56
2021/03/14 04:03:34;;;;;;;14.18;5.32;;;5.30;99.90;;;;;;5088979;28;20077;-56
2021/03/14 04:06:00;;;;;;;9.98;4.88;;;5.30;99.90;;;;;;5091065;28;20039;-58
2021/03/14 04:08:28;;;;;;;15.70;4.47;;;5.30;99.90;;;;;;5093830;28;20024;-56
2021/03/14 04:10:55;;;;;;;11.38;4.60;;;5.30;99.90;;;;;;5093377;28;20024;-56
2021/03/14 04:13:21;;;;;;;15.55;4.20;;;5.30;99.90;;;;;;5092787;28;20040;-55
2021/03/14 04:15:47;;;;;;;20.35;4.88;;;5.30;99.90;;;;;;5093019;28;20020;-54
2021/03/14 04:18:14;;;;;;;13.15;4.03;;;5.30;99.90;;;;;;5092873;28;20032;-57
2021/03/14 04:20:41;;;;;;;22.67;4.85;;;5.30;99.90;;;;;;5093071;28;20031;-53
2021/03/14 04:23:15;;;;;;;8.88;3.53;;;5.30;99.90;;;;;;5093162;28;20020;-54
2021/03/14 04:25:43;;;;;;;15.43;3.55;;;5.30;99.90;;;;;;5093429;28;20036;-54
2021/03/14 04:28:10;;;;;;;9.02;2.92;;;5.30;99.90;;;;;;5090723;28;20658;-54
2021/03/14 04:30:36;;;;;;;13.05;3.10;;;5.30;99.90;;;;;;5093130;28;20032;-54
2021/03/14 04:33:04;;;;;;;20.05;4.25;;;5.30;99.90;;;;;;5092934;28;20031;-54
2021/03/14 04:35:30;;;;;;;13.02;3.35;;;5.20;99.90;;;;;;5092320;28;20020;-56
2021/03/14 04:37:56;;;;;;;13.50;3.55;;;5.20;99.90;;;;;;5093257;28;20032;-53
2021/03/14 04:40:23;;;;;;;11.88;3.65;;;5.20;99.90;;;;;;5092268;28;20377;-54
2021/03/14 04:42:52;;;;;;;15.05;4.63;;;5.20;99.90;;;;;;5092949;28;20026;-56
2021/03/14 04:45:18;;;;;;;13.10;3.92;;;5.30;99.90;;;;;;5092663;28;20059;-55
2021/03/14 04:47:46;;;;;;;17.30;5.45;;;5.20;99.90;;;;;;5092830;28;20020;-56
2021/03/14 04:50:14;;;;;;;14.15;4.72;;;5.20;99.90;;;;;;5092815;28;20032;-54
2021/03/14 04:52:44;;;;;;;11.38;3.58;;;5.30;99.90;;;;;;5091993;28;20036;-54
2021/03/14 04:55:12;;;;;;;15.35;4.30;;;5.30;99.90;;;;;;5092142;28;20032;-55
2021/03/14 04:57:39;;;;;;;10.73;4.15;;;5.30;99.90;;;;;;5093374;28;20390;-56
2021/03/14 05:00:08;;;;;;;18.10;4.35;;;5.20;99.90;;;;;;5091886;28;20016;-57
2021/03/14 05:02:36;;;;;;;14.75;4.47;;;5.20;99.90;;;;;;5092284;28;20032;-55
2021/03/14 05:05:03;;;;;;;14.18;4.38;;;5.20;99.90;;;;;;5091707;28;20536;-54
2021/03/14 05:07:29;;;;;;;12.52;4.63;;;5.20;99.90;;;;;;5092830;28;20390;-58
2021/03/14 05:09:57;;;;;;;19.92;4.45;;;5.20;99.90;;;;;;5074058;28;20024;-57
2021/03/14 05:12:24;;;;;;;12.50;4.82;;;5.10;99.90;;;;;;5092234;28;20104;-54
2021/03/14 05:14:50;;;;;;;17.73;5.78;;;5.10;99.90;;;;;;5092321;28;20020;-55
2021/03/14 05:17:17;;;;;;;28.45;5.93;;;5.10;99.90;;;;;;5091883;28;20028;-56
2021/03/14 05:19:43;;;;;;;15.85;4.35;;;5.10;99.90;;;;;;5090103;28;20028;-55
2021/03/14 05:22:09;;;;;;;18.42;5.25;;;5.10;99.90;;;;;;5091892;28;20020;-56
2021/03/14 05:24:35;;;;;;;17.20;4.05;;;5.10;99.90;;;;;;5091280;28;20031;-55
2021/03/14 05:27:03;;;;;;;14.30;4.68;;;5.00;99.90;;;;;;5091759;28;20036;-57
2021/03/14 05:29:30;;;;;;;20.65;5.20;;;5.00;99.90;;;;;;5092375;28;20027;-57
2021/03/14 05:31:57;;;;;;;28.90;5.30;;;5.00;99.90;;;;;;5092662;28;20020;-56
2021/03/14 05:34:24;;;;;;;13.73;4.80;;;5.00;99.90;;;;;;5091898;28;20149;-56
2021/03/14 05:36:50;;;;;;;17.95;5.40;;;5.00;99.90;;;;;;5091908;28;20108;-54
2021/03/14 05:39:17;;;;;;;15.85;4.88;;;5.00;99.90;;;;;;5091595;28;20055;-57
2021/03/14 05:41:44;;;;;;;13.82;5.10;;;5.00;99.90;;;;;;5091490;28;20822;-57
2021/03/14 05:44:11;;;;;;;14.65;5.72;;;5.00;99.90;;;;;;5091626;28;20477;-52
2021/03/14 05:46:37;;;;;;;18.45;5.82;;;5.00;99.90;;;;;;5091613;28;20032;-57
2021/03/14 05:49:04;;;;;;;13.57;5.88;;;5.00;99.90;;;;;;5091732;28;20036;-54
2021/03/14 05:51:35;;;;;;;17.30;6.47;;;5.00;99.90;;;;;;5091570;28;20115;-55
2021/03/14 05:54:02;;;;;;;22.20;6.55;;;5.00;99.90;;;;;;5089501;28;20047;-52
2021/03/14 05:56:29;;;;;;;18.48;7.13;;;5.00;99.90;;;;;;5090351;28;20124;-56
2021/03/14 05:58:55;;;;;;;19.88;7.20;;;5.10;99.90;;;;;;5091507;28;20039;-56
2021/03/14 06:01:28;;;;;;;22.08;7.05;;;5.10;99.90;;;;;;5090621;28;20036;-55
2021/03/14 06:03:57;;;;;;;17.00;6.82;;;5.10;99.90;;;;;;5090235;28;20294;-58
2021/03/14 06:06:24;;;;;;;32.38;8.82;;;5.10;99.90;;;;;;5090450;28;20500;-55
2021/03/14 06:08:54;;;;;;;29.60;6.45;;;5.10;99.90;;;;;;5091193;28;20032;-55
2021/03/14 06:11:20;;;;;;;20.38;6.25;;;5.10;99.90;;;;;;5091674;28;20515;-56
2021/03/14 06:13:46;;;;;;;19.02;6.60;;;5.10;99.90;;;;;;5091049;28;20040;-55
2021/03/14 06:16:12;;;;;;;21.00;7.10;;;5.10;99.90;;;;;;5090975;28;20031;-57
2021/03/14 06:18:38;;;;;;;27.25;9.68;;;5.10;99.90;;;;;;5091136;28;20032;-54
2021/03/14 06:21:21;;;;;;;25.05;7.65;;;5.20;99.90;;;;;;5089882;28;20027;-56
2021/03/14 06:24:08;;;;;;;14.75;7.45;;;5.10;99.90;;;;;;5088878;28;20059;-58
2021/03/14 06:26:39;;;;;;;22.40;7.63;;;5.20;99.90;;;;;;5126614;22;20065;-56
2021/03/14 06:29:17;;;;;;;18.77;6.97;;;5.20;99.90;;;;;;5123696;27;20027;-57
2021/03/14 06:31:47;;;;;;;18.52;7.22;;;5.20;99.90;;;;;;5126594;27;20019;-51
2021/03/14 06:34:45;;;;;;;24.77;7.45;;;5.20;99.90;;;;;;5131883;27;20030;-59
2021/03/14 06:37:16;;;;;;;23.67;8.30;;;5.20;99.90;;;;;;5085451;27;20073;-52
2021/03/14 06:39:45;;;;;;;20.05;7.00;;;5.20;99.90;;;;;;5131098;27;20068;-56
2021/03/14 06:42:28;;;;;;;23.75;8.15;;;5.30;99.90;;;;;;5125450;27;20023;-53
2021/03/14 06:45:00;;;;;;;23.98;7.63;;;5.30;99.90;;;;;;5126330;27;20020;-54
2021/03/14 06:47:37;;;;;;;24.05;8.00;;;5.30;99.90;;;;;;5124079;27;20050;-54
2021/03/14 06:50:03;;;;;;;15.98;7.45;;;5.30;99.90;;;;;;5131615;27;20031;-56
2021/03/14 06:52:28;;;;;;;17.38;7.65;;;5.30;99.90;;;;;;5130337;27;20515;-54
2021/03/14 06:54:54;;;;;;;23.23;8.77;;;5.40;99.90;;;;;;5132162;27;20066;-58
2021/03/14 06:57:22;;;;;;;18.00;7.90;;;5.40;99.90;;;;;;5131848;27;20027;-53
2021/03/14 06:59:50;;;;;;;18.15;7.70;;;5.40;99.90;;;;;;5128285;27;20037;-54
2021/03/14 07:02:26;;;;;;;18.42;8.27;;;5.40;99.90;;;;;;5128927;27;20020;-55
2021/03/14 07:04:57;;;;;;;19.27;8.18;;;5.50;99.90;;;;;;5128769;27;20465;-54
2021/03/14 07:07:32;;;;;;;17.98;7.63;;;5.50;99.90;;;;;;5131904;27;20038;-52
2021/03/14 07:10:06;;;;;;;21.60;9.10;;;5.50;99.90;;;;;;5131686;27;20031;-54
2021/03/14 07:12:33;;;;;;;;;;;5.50;99.90;;;;;;5129476;27;20046;-53
2021/03/14 07:15:16;;;;;;;18.02;8.32;;;5.50;99.90;;;;;;5131846;27;20003;-51
2021/03/14 07:17:49;;;;;;;28.48;8.48;;;5.50;99.90;;;;;;5127267;27;20039;-52
2021/03/14 07:20:17;;;;;;;12.75;6.88;;;5.60;99.90;;;;;;5129261;27;20026;-52
2021/03/14 07:22:56;;;;;;;20.85;8.50;;;5.60;99.90;;;;;;5130594;27;20019;-51
2021/03/14 07:25:23;;;;;;;16.08;8.05;;;5.70;99.90;;;;;;5131157;27;20033;-51
2021/03/14 07:27:50;;;;;;;18.70;7.57;;;5.70;99.90;;;;;;5122719;27;20055;-56
2021/03/14 07:30:18;;;;;;;21.38;8.20;;;5.90;99.90;;;;;;5124585;27;20039;-54
2021/03/14 07:32:46;;;;;;;16.98;6.75;;;5.90;99.90;;;;;;5118767;27;20488;-51
2021/03/14 07:35:12;;;;;;;18.15;7.72;;;6.00;99.90;;;;;;5121956;27;20501;-54
2021/03/14 07:37:41;;;;;;;18.02;7.45;;;6.10;99.90;;;;;;5126702;27;20043;-52
2021/03/14 07:40:09;;;;;;;18.58;6.60;;;6.10;99.90;;;;;;5107694;28;20481;-54
2021/03/14 07:42:35;;;;;;;26.70;7.65;;;6.10;99.90;;;;;;5129993;27;20058;-55
2021/03/14 07:45:01;;;;;;;17.85;6.75;;;6.20;99.90;;;;;;5128627;27;20043;-55
2021/03/14 07:47:30;;;;;;;22.88;6.65;;;6.20;99.90;;;;;;5126276;27;20023;-53
2021/03/14 07:49:56;;;;;;;26.38;7.82;;;6.10;99.90;;;;;;5129955;27;20046;-54
2021/03/14 07:52:28;;;;;;;21.00;6.45;;;6.10;99.90;;;;;;5130968;27;20039;-54
2021/03/14 07:55:00;;;;;;;15.45;5.68;;;6.10;99.90;;;;;;5130818;27;20487;-56
2021/03/14 07:57:26;;;;;;;21.13;6.28;;;6.20;99.90;;;;;;5121332;28;20031;-56
2021/03/14 07:59:52;;;;;;;21.35;7.47;;;6.20;99.90;;;;;;5119641;28;20752;-53
2021/03/14 08:02:20;;;;;;;28.52;11.77;;;6.30;99.90;;;;;;5119268;28;20034;-55
2021/03/14 08:05:01;;;;;;;17.38;6.80;;;6.30;99.90;;;;;;5121038;28;20542;-54
2021/03/14 08:07:33;;;;;;;19.45;6.38;;;6.30;99.90;;;;;;5104506;28;20519;-52
2021/03/14 08:10:00;;;;;;;19.83;6.18;;;6.30;99.90;;;;;;5121901;28;20084;-54
2021/03/14 08:12:34;;;;;;;24.00;6.13;;;6.30;99.90;;;;;;5125236;28;20023;-52
2021/03/14 08:15:00;;;;;;;;;;;6.40;99.90;;;;;;5122429;28;20031;-51
2021/03/14 08:17:36;;;;;;;12.68;6.15;;;6.40;99.90;;;;;;5119531;28;19915;-51
2021/03/14 08:20:04;;;;;;;14.20;5.05;;;6.40;99.90;;;;;;5121351;28;20031;-51
2021/03/14 08:22:38;;;;;;;24.55;5.70;;;6.40;99.90;;;;;;5122461;28;20387;-53
2021/03/14 08:25:21;;;;;;;14.35;5.85;;;6.40;99.90;;;;;;5121943;28;20511;-56
2021/03/14 08:27:48;;;;;;;17.92;5.35;;;6.40;99.90;;;;;;5124915;28;20041;-52
2021/03/14 08:30:32;;;;;;;16.00;5.60;;;6.40;99.90;;;;;;5122033;28;20027;-54
2021/03/14 08:33:24;;;;;;;16.88;5.88;;;6.40;99.90;;;;;;5122318;28;20384;-54
2021/03/14 08:35:52;;;;;;;16.15;5.45;;;6.50;99.90;;;;;;5118381;28;20089;-56
2021/03/14 08:38:40;;;;;;;15.05;5.43;;;6.50;99.90;;;;;;5121427;28;20039;-56
2021/03/14 08:41:23;;;;;;;13.30;5.95;;;6.60;99.90;;;;;;5118113;28;20039;-56
2021/03/14 08:43:52;;;;;;;14.38;6.15;;;6.70;99.90;;;;;;5122439;28;20080;-54
2021/03/14 08:46:18;;;;;;;21.80;8.35;;;6.70;99.90;;;;;;5119789;28;20031;-59
2021/03/14 08:48:44;;;;;;;21.02;7.15;;;6.60;99.90;;;;;;5122841;28;20019;-57
2021/03/14 08:51:11;;;;;;;16.02;6.15;;;6.60;99.90;;;;;;5122621;27;20503;-52
2021/03/14 08:53:37;;;;;;;21.23;7.90;;;6.70;99.90;;;;;;5127481;27;20023;-56
2021/03/14 08:56:04;;;;;;;16.30;6.68;;;6.70;99.90;;;;;;5129686;27;20397;-55
2021/03/14 08:58:30;;;;;;;20.77;6.40;;;6.60;99.90;;;;;;5129108;27;20478;-54
2021/03/14 09:01:10;;;;;;;21.77;6.97;;;6.50;99.90;;;;;;5129190;27;20026;-55
2021/03/14 09:03:44;;;;;;;18.30;6.93;;;6.60;99.90;;;;;;5129454;27;20027;-60
2021/03/14 09:06:29;;;;;;;12.40;4.75;;;6.60;99.90;;;;;;5121566;27;20389;-56
2021/03/14 09:09:05;;;;;;;17.10;6.60;;;6.70;99.90;;;;;;5128002;27;20114;-57
2021/03/14 09:11:40;;;;;;;25.58;6.82;;;6.70;99.90;;;;;;5129749;27;20047;-58
2021/03/14 09:14:30;;;;;;;16.77;7.65;;;6.80;99.90;;;;;;5126465;27;20031;-57
2021/03/14 09:17:07;;;;;;;17.90;6.07;;;6.90;99.90;;;;;;5122504;27;20111;-57
2021/03/14 09:19:38;;;;;;;21.95;7.03;;;6.90;99.90;;;;;;5128305;27;20022;-55
2021/03/14 09:22:11;;;;;;;22.92;7.63;;;6.90;99.90;;;;;;5121645;27;20065;-58
2021/03/14 09:24:43;;;;;;;21.13;7.45;;;6.80;99.90;;;;;;5125996;27;20049;-58
2021/03/14 09:27:19;;;;;;;21.50;6.68;;;6.70;99.90;;;;;;5127528;27;20038;-58
2021/03/14 09:29:48;;;;;;;27.15;7.93;;;6.80;99.90;;;;;;5125394;27;20437;-55
2021/03/14 09:32:27;;;;;;;20.25;8.48;;;6.70;99.90;;;;;;5125002;27;20040;-56
2021/03/14 09:35:16;;;;;;;21.58;7.85;;;6.70;99.90;;;;;;5128821;27;20038;-53
2021/03/14 09:37:44;;;;;;;17.63;7.50;;;6.70;99.90;;;;;;5123161;27;20492;-53
2021/03/14 09:40:11;;;;;;;22.10;8.60;;;6.60;99.90;;;;;;5124000;27;20027;-58
2021/03/14 09:42:38;;;;;;;20.13;9.40;;;6.50;99.90;;;;;;5120600;27;20397;-58
2021/03/14 09:45:15;;;;;;;20.55;8.85;;;6.40;99.90;;;;;;5128625;27;20031;-52
2021/03/14 09:48:03;;;;;;;24.27;8.82;;;6.30;99.90;;;;;;5128776;27;20042;-54
2021/03/14 09:50:30;;;;;;;14.60;8.25;;;6.10;99.90;;;;;;5128264;27;20042;-54
2021/03/14 09:53:00;;;;;;;20.15;9.00;;;6.20;99.90;;;;;;5122665;27;20031;-55
2021/03/14 09:55:31;;;;;;;15.13;7.75;;;6.20;99.90;;;;;;5127983;27;20035;-53
2021/03/14 09:57:58;;;;;;;17.30;8.23;;;6.20;99.90;;;;;;5124631;27;20015;-51
2021/03/14 10:00:33;;;;;;;18.48;8.07;;;6.20;99.90;;;;;;5126573;27;20050;-59
2021/03/14 10:03:11;;;;;;;14.68;7.07;;;6.30;99.90;;;;;;5121572;27;20057;-56
2021/03/14 10:05:43;;;;;;;17.58;7.95;;;6.30;99.90;;;;;;5112973;27;20032;-56
2021/03/14 10:08:10;;;;;;;18.33;6.78;;;6.30;99.90;;;;;;5116760;27;20050;-56
2021/03/14 10:10:38;;;;;;;17.08;7.97;;;6.30;99.90;;;;;;5119720;27;20031;-54
2021/03/14 10:13:06;;;;;;;14.38;6.30;;;6.30;99.90;;;;;;5126999;27;20067;-54
2021/03/14 10:15:32;;;;;;;11.70;5.22;;;6.20;99.90;;;;;;5124728;27;20027;-55
2021/03/14 10:17:58;;;;;;;12.48;5.55;;;6.20;99.90;;;;;;5125690;27;20015;-56
2021/03/14 10:20:25;;;;;;;18.15;6.03;;;6.30;99.90;;;;;;5128536;27;20118;-55
2021/03/14 10:23:04;;;;;;;12.30;5.55;;;6.30;99.90;;;;;;5123290;27;20019;-55
2021/03/14 10:25:35;;;;;;;10.75;5.63;;;6.30;99.90;;;;;;5124899;27;20031;-56
2021/03/14 10:28:10;;;;;;;15.82;5.68;;;6.40;99.90;;;;;;5128361;27;20031;-54
2021/03/14 10:30:37;;;;;;;21.30;6.32;;;6.20;99.90;;;;;;5120406;27;20382;-53
2021/03/14 10:33:03;;;;;;;9.60;5.75;;;6.20;99.90;;;;;;5125210;27;20033;-56
2021/03/14 10:35:29;;;;;;;12.32;5.65;;;6.20;99.90;;;;;;5129534;27;20023;-53
2021/03/14 10:37:55;;;;;;;12.38;5.82;;;6.30;99.90;;;;;;5122940;27;20088;-58
2021/03/14 10:40:24;;;;;;;13.00;5.10;;;6.40;99.90;;;;;;5120701;27;20030;-53
2021/03/14 10:42:52;;;;;;;12.45;6.68;;;6.60;99.90;;;;;;5118799;27;20015;-57
2021/03/14 10:45:21;;;;;;;12.02;6.00;;;6.60;99.90;;;;;;5122932;27;20035;-57
2021/03/14 10:48:02;;;;;;;11.82;5.85;;;6.70;99.90;;;;;;5115520;27;20349;-56
2021/03/14 10:50:33;;;;;;;9.07;4.50;;;6.80;99.90;;;;;;5122845;27;20031;-53
2021/03/14 10:53:26;;;;;;;8.82;5.07;;;6.80;99.90;;;;;;5121702;27;20068;-53
2021/03/14 10:56:04;;;;;;;7.13;3.78;;;6.90;99.90;;;;;;5114025;27;20054;-52
2021/03/14 10:58:39;;;;;;;8.30;3.97;;;6.90;99.90;;;;;;5122872;27;20022;-53
2021/03/14 11:01:05;;;;;;;;;;;6.80;99.90;;;;;;5122285;27;20019;-56
2021/03/14 11:03:37;;;;;;;6.25;3.80;;;6.70;99.90;;;;;;5124338;27;20320;-54
2021/03/14 11:06:17;;;;;;;3.28;2.88;;;6.80;99.90;;;;;;5124198;27;20073;-57
2021/03/14 11:08:53;;;;;;;4.28;2.90;;;6.80;99.90;;;;;;5122661;27;20019;-54
2021/03/14 11:11:23;;;;;;;5.97;4.15;;;6.90;99.90;;;;;;5127014;27;20035;-55
2021/03/14 11:13:49;;;;;;;6.15;3.05;;;7.00;99.90;;;;;;5122398;27;20027;-53
2021/03/14 11:16:15;;;;;;;5.72;3.75;;;6.90;99.90;;;;;;5124679;27;20019;-56
2021/03/14 11:18:41;;;;;;;6.28;3.90;;;6.90;99.90;;;;;;5119501;27;20027;-55
2021/03/14 11:21:09;;;;;;;5.68;3.88;;;7.00;99.90;;;;;;5118950;27;20059;-56
2021/03/14 11:23:35;;;;;;;7.35;3.38;;;7.00;99.90;;;;;;5125496;27;20084;-57
2021/03/14 11:26:00;;;;;;;6.03;4.40;;;7.00;99.90;;;;;;5103203;27;20040;-57
2021/03/14 11:28:26;;;;;;;8.15;4.57;;;7.00;99.90;;;;;;5117123;27;20536;-54
2021/03/14 11:30:52;;;;;;;9.38;4.93;;;7.00;99.90;;;;;;5119175;27;20027;-57
2021/03/14 11:33:17;;;;;;;9.05;4.70;;;6.80;99.90;;;;;;5121951;27;20106;-58
2021/03/14 11:35:43;;;;;;;8.98;5.07;;;6.80;99.90;;;;;;5124499;27;20026;-57
2021/03/14 11:38:09;;;;;;;11.05;5.45;;;6.70;99.90;;;;;;5123568;27;20027;-54
2021/03/14 11:40:36;;;;;;;10.57;5.38;;;6.80;99.90;;;;;;5114134;27;20042;-63
2021/03/14 11:43:02;;;;;;;11.00;5.82;;;6.70;99.90;;;;;;5101955;27;20027;-59
2021/03/14 11:45:27;;;;;;;11.70;5.93;;;6.80;99.90;;;;;;5104848;28;20097;-58
2021/03/14 11:47:53;;;;;;;12.23;5.35;;;6.90;99.90;;;;;;5121084;27;20035;-59
2021/03/14 11:50:19;;;;;;;7.93;5.18;;;7.00;99.90;;;;;;5112997;27;20031;-59
2021/03/14 11:52:49;;;;;;;9.05;4.82;;;7.10;99.90;;;;;;5112736;27;20031;-60
2021/03/14 11:55:15;;;;;;;8.35;5.13;;;7.30;99.90;;;;;;5111047;27;20043;-56
2021/03/14 11:57:41;;;;;;;9.68;4.90;;;7.40;99.90;;;;;;5114635;28;20027;-57
2021/03/14 12:00:07;;;;;;;8.82;5.13;;;7.70;99.90;;;;;;5123303;28;20027;-58
2021/03/14 12:02:33;;;;;;;7.80;5.20;;;7.90;99.90;;;;;;5122031;28;20019;-59
2021/03/14 12:04:58;;;;;;;8.32;4.90;;;8.10;99.90;;;;;;5119789;28;20033;-58
2021/03/14 12:07:25;;;;;;;8.00;5.28;;;8.10;99.90;;;;;;5121904;28;20484;-56
2021/03/14 12:09:52;;;;;;;8.43;5.32;;;8.00;99.90;;;;;;5122821;28;20065;-58
2021/03/14 12:12:18;;;;;;;9.68;5.30;;;7.70;99.90;;;;;;5120881;28;20035;-56
2021/03/14 12:14:44;;;;;;;6.45;5.03;;;7.70;99.90;;;;;;5119308;28;20024;-58
2021/03/14 12:17:10;;;;;;;10.38;6.00;;;7.60;99.90;;;;;;5124406;28;20031;-59
2021/03/14 12:19:36;;;;;;;13.98;5.97;;;7.50;99.90;;;;;;5124216;28;20031;-58
2021/03/14 12:22:02;;;;;;;11.93;6.25;;;7.40;99.90;;;;;;5122057;28;20029;-61
2021/03/14 12:24:28;;;;;;;12.90;6.55;;;7.40;99.90;;;;;;5125020;28;20027;-58
2021/03/14 12:26:53;;;;;;;11.02;6.80;;;7.30;99.90;;;;;;5127859;27;20522;-60
2021/03/14 12:29:19;;;;;;;14.00;6.70;;;7.40;99.90;;;;;;5123130;27;20509;-58
2021/03/14 12:31:45;;;;;;;11.18;7.65;;;7.50;99.90;;;;;;5127643;27;20499;-59
2021/03/14 12:34:10;;;;;;;13.23;6.72;;;7.60;99.90;;;;;;5127273;27;20241;-57
2021/03/14 12:36:36;;;;;;;13.70;6.85;;;7.80;99.90;;;;;;5121775;27;20032;-59
2021/03/14 12:39:02;;;;;;;12.02;6.47;;;8.00;99.90;;;;;;5129641;27;20027;-60
2021/03/14 12:41:28;;;;;;;11.70;7.05;;;8.00;99.90;;;;;;5125387;27;20034;-58
2021/03/14 12:43:53;;;;;;;9.27;6.32;;;8.20;99.90;;;;;;5127294;27;20027;-60
2021/03/14 12:46:19;;;;;;;10.23;6.28;;;8.20;99.90;;;;;;5129445;27;20117;-60
2021/03/14 12:48:44;;;;;;;10.82;7.22;;;8.20;99.90;;;;;;5126659;27;20026;-58
2021/03/14 12:51:11;;;;;;;11.05;6.93;;;8.10;99.90;;;;;;5128444;27;20023;-58
2021/03/14 12:53:36;;;;;;;9.65;6.40;;;8.10;99.90;;;;;;5131586;27;20043;-57
2021/03/14 12:56:02;;;;;;;12.43;6.32;;;8.20;99.90;;;;;;5128463;27;20027;-57
2021/03/14 12:58:28;;;;;;;11.48;6.85;;;8.20;99.90;;;;;;5127412;27;20031;-57